createdAt,value
2023-02-25T00:02:30.991Z,3.18
2023-02-25T00:05:13.987Z,3.18
2023-02-25T00:08:07.990Z,3.17
2023-02-25T00:11:03.975Z,3.18
2023-02-25T00:13:38.081Z,3.23
2023-02-25T00:16:27.094Z,3.25
2023-02-25T00:19:09.982Z,3.30
2023-02-25T00:22:03.990Z,3.37
2023-02-25T00:24:57.986Z,3.44
2023-02-25T00:27:51.996Z,3.53
2023-02-25T00:30:40.101Z,3.60
2023-02-25T00:33:13.188Z,3.64
2023-02-25T00:36:00.002Z,3.66
2023-02-25T00:38:40.054Z,3.67
2023-02-25T00:41:39.998Z,3.67
2023-02-25T00:44:26.979Z,3.68
2023-02-25T00:47:07.015Z,3.67
2023-02-25T00:49:54.006Z,3.64
2023-02-25T00:52:34.048Z,3.62
2023-02-25T00:55:21.021Z,3.63
2023-02-25T00:57:54.089Z,3.62
2023-02-25T01:00:51.279Z,3.62
2023-02-25T01:03:25.080Z,3.61
2023-02-25T01:06:15.021Z,3.61
2023-02-25T01:08:49.293Z,3.63
2023-02-25T01:11:40.081Z,3.65
2023-02-25T01:14:22.997Z,3.75
2023-02-25T01:17:10.019Z,3.90
2023-02-25T01:19:43.096Z,3.98
2023-02-25T01:22:31.005Z,4.03
2023-02-25T01:25:04.218Z,4.07
2023-02-25T01:27:51.065Z,4.10
2023-02-25T01:30:24.141Z,4.13
2023-02-25T01:33:11.071Z,4.15
2023-02-25T01:35:44.137Z,4.15
2023-02-25T01:38:31.012Z,4.16
2023-02-25T01:41:06.276Z,4.18
2023-02-25T01:44:24.123Z,4.17
2023-02-25T01:47:01.366Z,4.15
2023-02-25T01:49:53.003Z,4.12
2023-02-25T01:52:37.064Z,4.09
2023-02-25T01:55:18.008Z,4.09
2023-02-25T01:58:05.046Z,4.06
2023-02-25T02:01:02.105Z,4.06
2023-02-25T02:03:50.031Z,4.05
2023-02-25T02:06:41.059Z,4.03
2023-02-25T02:09:38.004Z,4.02
2023-02-25T02:12:32.060Z,4.00
2023-02-25T02:15:22.029Z,3.98
2023-02-25T02:18:16.035Z,3.98
2023-02-25T02:21:36.024Z,3.95
2023-02-25T02:24:37.040Z,3.94
2023-02-25T02:27:46.019Z,3.91
2023-02-25T02:30:42.070Z,3.89
2023-02-25T02:33:49.031Z,3.89
2023-02-25T02:36:52.212Z,3.86
2023-02-25T02:39:54.127Z,3.86
2023-02-25T02:42:47.146Z,3.83
2023-02-25T02:46:16.177Z,3.81
2023-02-25T02:48:58.171Z,3.80
2023-02-25T02:52:00.066Z,3.79
2023-02-25T02:54:44.130Z,3.79
2023-02-25T02:57:34.033Z,3.78
2023-02-25T03:00:25.042Z,3.76
2023-02-25T03:03:24.048Z,3.75
2023-02-25T03:06:19.048Z,3.74
2023-02-25T03:09:00.149Z,3.73
2023-02-25T03:11:47.030Z,3.75
2023-02-25T03:14:28.103Z,3.75
2023-02-25T03:17:23.040Z,3.75
2023-02-25T03:20:21.028Z,3.73
2023-02-25T03:23:19.063Z,3.74
2023-02-25T03:26:44.103Z,3.73
2023-02-25T03:29:39.053Z,3.73
2023-02-25T03:32:27.237Z,3.76
2023-02-25T03:35:05.051Z,3.78
2023-02-25T03:37:56.109Z,3.81
2023-02-25T03:40:40.760Z,3.83
2023-02-25T03:43:47.052Z,3.84
2023-02-25T03:46:42.085Z,3.86
2023-02-25T03:49:46.203Z,3.88
2023-02-25T03:52:31.066Z,3.94
2023-02-25T03:55:27.106Z,3.97
2023-02-25T03:58:15.059Z,4.01
2023-02-25T04:00:51.223Z,4.04
2023-02-25T04:03:38.094Z,4.05
2023-02-25T04:06:12.193Z,4.08
2023-02-25T04:08:59.123Z,4.08
2023-02-25T04:11:39.128Z,4.09
2023-02-25T04:14:33.123Z,4.11
2023-02-25T04:17:36.941Z,4.09
2023-02-25T04:20:31.127Z,4.10
2023-02-25T04:23:28.092Z,4.10
2023-02-25T04:26:22.530Z,4.09
2023-02-25T04:29:10.119Z,4.08
2023-02-25T04:31:50.330Z,4.12
2023-02-25T04:34:37.128Z,4.12
2023-02-25T04:37:11.263Z,4.15
2023-02-25T04:39:58.129Z,4.11
2023-02-25T04:42:31.206Z,4.11
2023-02-25T04:45:19.118Z,4.09
2023-02-25T04:47:52.219Z,4.08
2023-02-25T04:50:39.125Z,4.03
2023-02-25T04:53:14.929Z,4.02
2023-02-25T04:56:02.115Z,3.97
2023-02-25T04:58:37.265Z,3.93
2023-02-25T05:01:27.055Z,3.91
2023-02-25T05:04:03.373Z,3.90
2023-02-25T05:06:50.156Z,3.87
2023-02-25T05:09:30.104Z,3.87
2023-02-25T05:12:24.152Z,3.87
2023-02-25T05:15:23.139Z,3.90
2023-02-25T05:18:10.104Z,3.90
2023-02-25T05:20:52.256Z,3.88
2023-02-25T05:23:46.104Z,3.88
2023-02-25T05:26:33.133Z,3.84
2023-02-25T05:29:13.270Z,3.80
2023-02-25T05:32:09.255Z,3.76
2023-02-25T05:35:03.166Z,3.74
2023-02-25T05:37:50.102Z,3.71
2023-02-25T05:40:23.224Z,3.68
2023-02-25T05:43:10.125Z,3.66
2023-02-25T05:45:43.224Z,3.65
2023-02-25T05:48:30.148Z,3.63
2023-02-25T05:51:23.669Z,3.63
2023-02-25T05:54:10.154Z,3.64
2023-02-25T05:56:44.395Z,3.63
2023-02-25T05:59:34.510Z,3.66
2023-02-25T06:02:08.321Z,3.67
2023-02-25T06:05:01.172Z,3.66
2023-02-25T06:07:39.216Z,3.65
2023-02-25T06:10:26.164Z,3.64
2023-02-25T06:13:07.143Z,3.64
2023-02-25T06:16:01.164Z,3.64
2023-02-25T06:18:49.136Z,3.62
2023-02-25T06:21:31.131Z,3.61
2023-02-25T06:24:26.160Z,3.60
2023-02-25T06:27:15.128Z,3.30
2023-02-25T06:29:55.131Z,3.11
2023-02-25T06:32:51.197Z,2.91
2023-02-25T06:35:47.133Z,2.78
2023-02-25T06:38:34.162Z,2.58
2023-02-25T06:41:23.133Z,2.49
2023-02-25T06:44:18.179Z,2.41
2023-02-25T06:47:07.140Z,2.26
2023-02-25T06:49:47.176Z,2.19
2023-02-25T06:52:42.173Z,2.14
2023-02-25T06:55:37.131Z,2.06
2023-02-25T06:58:24.155Z,2.01
2023-02-25T07:00:57.272Z,2.02
2023-02-25T07:03:44.168Z,2.02
2023-02-25T07:06:18.386Z,1.97
2023-02-25T07:09:06.147Z,1.99
2023-02-25T07:11:47.172Z,1.99
2023-02-25T07:14:41.149Z,2.02
2023-02-25T07:17:28.177Z,2.07
2023-02-25T07:20:01.234Z,2.11
2023-02-25T07:22:49.180Z,2.16
2023-02-25T07:25:22.308Z,2.23
2023-02-25T07:28:09.181Z,2.26
2023-02-25T07:30:42.377Z,2.27
2023-02-25T07:33:29.181Z,2.25
2023-02-25T07:36:03.251Z,2.26
2023-02-25T07:38:51.169Z,2.32
2023-02-25T07:41:34.974Z,2.33
2023-02-25T07:44:29.176Z,2.34
2023-02-25T07:47:16.178Z,2.34
2023-02-25T07:49:56.179Z,2.34
2023-02-25T07:52:43.181Z,2.37
2023-02-25T07:55:24.173Z,2.37
2023-02-25T07:58:18.184Z,2.35
2023-02-25T08:01:05.179Z,2.39
2023-02-25T08:03:45.184Z,2.42
2023-02-25T08:06:33.196Z,2.46
2023-02-25T08:09:06.264Z,2.51
2023-02-25T08:11:53.186Z,2.59
2023-02-25T08:14:26.273Z,2.63
2023-02-25T08:17:13.189Z,2.68
2023-02-25T08:19:54.295Z,2.72
2023-02-25T08:22:48.172Z,2.77
2023-02-25T08:25:42.203Z,2.80
2023-02-25T08:28:32.634Z,2.87
2023-02-25T08:31:07.703Z,2.93
2023-02-25T08:33:56.181Z,3.02
2023-02-25T08:36:32.287Z,3.07
2023-02-25T08:39:19.184Z,3.13
2023-02-25T08:41:52.289Z,3.19
2023-02-25T08:44:41.262Z,3.22
2023-02-25T08:47:14.384Z,3.24
2023-02-25T08:50:01.241Z,3.25
2023-02-25T08:52:35.517Z,3.27
2023-02-25T08:55:22.183Z,3.32
2023-02-25T08:57:55.320Z,3.38
2023-02-25T09:00:43.260Z,3.48
2023-02-25T09:03:16.817Z,3.62
2023-02-25T09:06:03.181Z,3.68
2023-02-25T09:08:36.431Z,3.81
2023-02-25T09:11:24.415Z,3.89
2023-02-25T09:13:59.319Z,3.97
2023-02-25T09:16:46.245Z,3.95
2023-02-25T09:19:27.230Z,4.07
2023-02-25T09:22:15.219Z,4.08
2023-02-25T09:24:48.398Z,4.15
2023-02-25T09:27:35.224Z,4.16
2023-02-25T09:30:08.330Z,4.32
2023-02-25T09:32:55.436Z,4.43
2023-02-25T09:35:29.279Z,4.61
2023-02-25T09:38:16.179Z,4.68
2023-02-25T09:40:53.297Z,4.79
2023-02-25T09:43:49.344Z,4.87
2023-02-25T09:46:31.227Z,4.87
2023-02-25T09:49:43.245Z,4.80
2023-02-25T09:52:59.220Z,4.72
2023-02-25T09:55:51.500Z,4.63
2023-02-25T09:58:41.269Z,4.60
2023-02-25T10:01:48.229Z,4.68
2023-02-25T10:05:13.229Z,4.68
2023-02-25T10:08:18.217Z,4.73
2023-02-25T10:11:08.196Z,4.70
2023-02-25T10:13:54.378Z,4.78
2023-02-25T10:16:58.236Z,4.86
2023-02-25T10:19:49.453Z,4.96
2023-02-25T10:23:06.207Z,5.05
2023-02-25T10:25:56.225Z,5.18
2023-02-25T10:28:52.215Z,5.17
2023-02-25T10:31:46.460Z,5.05
2023-02-25T10:34:45.277Z,4.93
2023-02-25T10:37:39.250Z,4.90
2023-02-25T10:40:14.366Z,4.86
2023-02-25T10:43:05.250Z,4.92
2023-02-25T10:45:48.244Z,4.98
2023-02-25T10:48:43.238Z,4.92
2023-02-25T10:51:37.231Z,4.87
2023-02-25T10:54:24.215Z,4.88
2023-02-25T10:57:05.241Z,4.91
2023-02-25T10:59:59.235Z,4.91
2023-02-25T11:02:50.306Z,4.92
2023-02-25T11:05:55.352Z,4.93
2023-02-25T11:08:43.245Z,4.89
2023-02-25T11:11:24.696Z,4.84
2023-02-25T11:14:23.240Z,4.73
2023-02-25T11:17:03.243Z,4.70
2023-02-25T11:20:00.243Z,4.69
2023-02-25T11:22:50.250Z,4.75
2023-02-25T11:25:25.322Z,4.73
2023-02-25T11:28:27.252Z,4.74
2023-02-25T11:31:01.512Z,4.77
2023-02-25T11:33:52.253Z,4.86
2023-02-25T11:36:38.268Z,4.87
2023-02-25T11:39:41.245Z,4.86
2023-02-25T11:42:33.247Z,4.90
2023-02-25T11:45:08.334Z,4.94
2023-02-25T11:47:56.229Z,4.97
2023-02-25T11:50:32.349Z,5.00
2023-02-25T11:53:45.342Z,5.13
2023-02-25T11:56:55.259Z,5.25
2023-02-25T11:59:54.245Z,5.34
2023-02-25T12:02:44.407Z,5.37
2023-02-25T12:06:03.288Z,5.49
2023-02-25T12:08:57.060Z,5.51
2023-02-25T12:12:12.244Z,5.43
2023-02-25T12:15:04.260Z,5.38
2023-02-25T12:17:57.242Z,5.32
2023-02-25T12:20:52.331Z,5.34
2023-02-25T12:23:54.277Z,5.30
2023-02-25T12:27:07.267Z,5.27
2023-02-25T12:30:13.264Z,5.22
2023-02-25T12:33:09.247Z,5.19
2023-02-25T12:35:54.379Z,5.25
2023-02-25T12:38:44.256Z,5.31
2023-02-25T12:41:29.592Z,5.24
2023-02-25T12:44:28.261Z,5.18
2023-02-25T12:47:08.259Z,5.22
2023-02-25T12:50:07.279Z,5.25
2023-02-25T12:53:16.299Z,5.26
2023-02-25T12:56:15.294Z,5.26
2023-02-25T12:59:18.262Z,5.17
2023-02-25T13:02:42.283Z,5.11
2023-02-25T13:05:42.277Z,5.06
2023-02-25T13:08:45.285Z,4.98
2023-02-25T13:12:13.627Z,4.98
2023-02-25T13:14:54.388Z,4.98
2023-02-25T13:18:00.299Z,4.88
2023-02-25T13:20:48.315Z,4.81
2023-02-25T13:23:49.280Z,4.80
2023-02-25T13:27:09.292Z,4.78
2023-02-25T13:30:05.248Z,4.82
2023-02-25T13:32:52.379Z,4.87
2023-02-25T13:35:50.322Z,4.92
2023-02-25T13:38:38.394Z,4.96
2023-02-25T13:41:31.401Z,4.91
2023-02-25T13:44:32.391Z,4.82
2023-02-25T13:47:34.347Z,4.84
2023-02-25T13:50:49.297Z,4.81
2023-02-25T13:54:02.301Z,4.77
2023-02-25T13:56:59.293Z,4.67
2023-02-25T14:00:11.307Z,4.59
2023-02-25T14:03:32.296Z,4.48
2023-02-25T14:06:25.304Z,4.51
2023-02-25T14:09:13.399Z,4.54
2023-02-25T14:12:22.321Z,4.45
2023-02-25T14:15:25.425Z,4.46
2023-02-25T14:18:32.286Z,4.46
2023-02-25T14:21:35.468Z,4.44
2023-02-25T14:24:43.295Z,4.46
2023-02-25T14:28:19.304Z,4.42
2023-02-25T14:31:34.471Z,4.39
2023-02-25T14:34:20.314Z,4.38
2023-02-25T14:38:01.298Z,4.38
2023-02-25T14:41:03.323Z,4.36
2023-02-25T14:43:53.297Z,4.35
2023-02-25T14:46:59.345Z,4.32
2023-02-25T14:50:00.329Z,4.36
2023-02-25T14:53:12.303Z,4.37
2023-02-25T14:56:11.310Z,4.36
2023-02-25T14:59:33.355Z,4.35
2023-02-25T15:02:35.361Z,4.28
2023-02-25T15:05:18.332Z,4.27
2023-02-25T15:08:40.331Z,4.27
2023-02-25T15:11:49.346Z,4.25
2023-02-25T15:14:46.454Z,4.18
2023-02-25T15:17:51.335Z,4.11
2023-02-25T15:20:38.971Z,4.08
2023-02-25T15:23:27.313Z,4.01
2023-02-25T15:26:25.466Z,3.98
2023-02-25T15:29:28.341Z,3.93
2023-02-25T15:32:31.074Z,3.90
2023-02-25T15:35:22.319Z,3.82
2023-02-25T15:38:05.324Z,3.74
2023-02-25T15:41:07.332Z,3.72
2023-02-25T15:43:54.353Z,3.67
2023-02-25T15:46:42.546Z,3.65
2023-02-25T15:49:40.329Z,3.64
2023-02-25T15:52:23.354Z,3.62
2023-02-25T15:55:26.331Z,3.58
2023-02-25T15:58:06.373Z,3.52
2023-02-25T16:01:00.444Z,3.49
2023-02-25T16:03:48.359Z,3.44
2023-02-25T16:06:47.482Z,3.43
2023-02-25T16:09:34.389Z,3.41
2023-02-25T16:12:12.440Z,3.39
2023-02-25T16:14:53.332Z,3.36
2023-02-25T16:17:40.466Z,3.30
2023-02-25T16:20:30.343Z,3.29
2023-02-25T16:23:10.372Z,3.28
2023-02-25T16:26:19.345Z,3.28
2023-02-25T16:29:27.360Z,3.24
2023-02-25T16:32:22.574Z,3.21
2023-02-25T16:35:15.352Z,3.14
2023-02-25T16:38:17.369Z,3.09
2023-02-25T16:41:14.344Z,3.02
2023-02-25T16:44:08.385Z,2.92
2023-02-25T16:47:05.344Z,2.84
2023-02-25T16:49:54.366Z,2.78
2023-02-25T16:52:42.359Z,2.72
2023-02-25T16:55:41.384Z,2.69
2023-02-25T16:58:40.359Z,2.63
2023-02-25T17:01:29.422Z,2.57
2023-02-25T17:04:20.654Z,2.48
2023-02-25T17:07:24.359Z,2.41
2023-02-25T17:10:00.669Z,2.36
2023-02-25T17:12:52.365Z,2.30
2023-02-25T17:15:59.394Z,2.22
2023-02-25T17:19:01.369Z,2.16
2023-02-25T17:21:50.374Z,2.12
2023-02-25T17:24:26.935Z,2.05
2023-02-25T17:27:18.415Z,1.98
2023-02-25T17:29:52.877Z,1.91
2023-02-25T17:32:39.365Z,1.85
2023-02-25T17:35:20.393Z,1.79
2023-02-25T17:38:15.410Z,1.73
2023-02-25T17:41:09.400Z,1.65
2023-02-25T17:43:56.388Z,1.51
2023-02-25T17:46:38.596Z,1.42
2023-02-25T17:49:25.401Z,1.37
2023-02-25T17:52:01.474Z,1.29
2023-02-25T17:54:53.388Z,1.24
2023-02-25T17:57:29.546Z,1.21
2023-02-25T18:00:27.400Z,1.17
2023-02-25T18:03:26.288Z,1.17
2023-02-25T18:06:51.432Z,1.12
2023-02-25T18:09:50.399Z,1.10
2023-02-25T18:12:43.377Z,1.07
2023-02-25T18:15:50.832Z,1.07
2023-02-25T18:18:41.395Z,1.05
2023-02-25T18:21:24.433Z,1.01
2023-02-25T18:24:19.339Z,0.97
2023-02-25T18:27:37.444Z,0.93
2023-02-25T18:30:34.425Z,0.91
2023-02-25T18:33:22.404Z,0.92
2023-02-25T18:36:02.395Z,0.96
2023-02-25T18:38:56.388Z,0.91
2023-02-25T18:41:50.386Z,0.81
2023-02-25T18:44:37.388Z,0.75
2023-02-25T18:47:10.538Z,0.74
2023-02-25T18:49:57.386Z,0.70
2023-02-25T18:52:31.645Z,0.65
2023-02-25T18:55:31.430Z,0.62
2023-02-25T18:58:04.916Z,0.59
2023-02-25T19:00:54.397Z,0.58
2023-02-25T19:03:46.573Z,0.55
2023-02-25T19:06:35.417Z,0.52
2023-02-25T19:09:08.527Z,0.51
2023-02-25T19:11:55.425Z,0.50
2023-02-25T19:14:35.429Z,0.54
2023-02-25T19:17:30.399Z,0.54
2023-02-25T19:20:20.438Z,0.59
2023-02-25T19:22:56.508Z,0.61
2023-02-25T19:25:43.438Z,0.63
2023-02-25T19:28:24.434Z,0.68
2023-02-25T19:31:20.475Z,0.71
2023-02-25T19:34:14.416Z,0.76
2023-02-25T19:37:08.419Z,0.79
2023-02-25T19:40:02.433Z,0.80
2023-02-25T19:42:51.458Z,0.81
2023-02-25T19:45:27.631Z,0.81
2023-02-25T19:48:14.428Z,0.83
2023-02-25T19:50:47.532Z,0.85
2023-02-25T19:53:34.424Z,0.85
2023-02-25T19:56:08.070Z,0.87
2023-02-25T19:58:54.415Z,0.91
2023-02-25T20:01:27.768Z,0.91
2023-02-25T20:04:16.453Z,0.92
2023-02-25T20:06:49.808Z,0.91
2023-02-25T20:09:36.410Z,0.92
2023-02-25T20:12:16.433Z,0.96
2023-02-25T20:15:10.421Z,0.94
2023-02-25T20:18:01.457Z,0.94
2023-02-25T20:20:41.479Z,0.97
2023-02-25T20:23:35.440Z,0.96
2023-02-25T20:26:30.453Z,0.96
2023-02-25T20:29:24.414Z,0.93
2023-02-25T20:32:11.566Z,0.94
2023-02-25T20:34:47.866Z,0.94
2023-02-25T20:37:42.444Z,0.95
2023-02-25T20:40:16.575Z,0.92
2023-02-25T20:43:03.450Z,0.89
2023-02-25T20:45:37.559Z,0.87
2023-02-25T20:48:36.431Z,0.85
2023-02-25T20:51:09.540Z,0.85
2023-02-25T20:53:56.444Z,0.85
2023-02-25T20:56:41.481Z,0.84
2023-02-25T20:59:22.441Z,0.85
2023-02-25T21:02:04.427Z,0.81
2023-02-25T21:04:37.980Z,0.79
2023-02-25T21:07:24.445Z,0.79
2023-02-25T21:09:57.621Z,0.78
2023-02-25T21:12:44.475Z,0.78
2023-02-25T21:15:18.603Z,0.76
2023-02-25T21:18:05.445Z,0.75
2023-02-25T21:20:38.522Z,0.76
2023-02-25T21:23:25.469Z,0.79
2023-02-25T21:26:07.458Z,0.79
2023-02-25T21:29:01.472Z,0.80
2023-02-25T21:31:48.522Z,0.80
2023-02-25T21:34:28.465Z,0.82
2023-02-25T21:37:22.478Z,0.80
2023-02-25T21:40:16.465Z,0.78
2023-02-25T21:43:10.450Z,0.77
2023-02-25T21:46:13.494Z,0.77
2023-02-25T21:49:09.458Z,0.71
2023-02-25T21:52:03.456Z,0.69
2023-02-25T21:54:57.476Z,0.67
2023-02-25T21:57:44.477Z,0.66
2023-02-25T22:00:25.487Z,0.66
2023-02-25T22:03:22.908Z,0.63
2023-02-25T22:06:09.465Z,0.61
2023-02-25T22:08:45.686Z,0.61
2023-02-25T22:11:39.471Z,0.60
2023-02-25T22:14:14.635Z,0.58
2023-02-25T22:17:02.174Z,0.59
2023-02-25T22:19:42.454Z,0.60
2023-02-25T22:22:29.476Z,0.60
2023-02-25T22:25:04.530Z,0.58
2023-02-25T22:27:51.509Z,0.60
2023-02-25T22:30:25.580Z,0.58
2023-02-25T22:33:12.511Z,0.59
2023-02-25T22:35:45.605Z,0.60
2023-02-25T22:38:36.526Z,0.59
2023-02-25T22:41:11.675Z,0.59
2023-02-25T22:43:58.501Z,0.59
2023-02-25T22:46:43.877Z,0.54
2023-02-25T22:49:30.492Z,0.51
2023-02-25T22:52:10.479Z,0.50
2023-02-25T22:55:04.487Z,0.51
2023-02-25T22:57:58.516Z,0.51
2023-02-25T23:00:55.561Z,0.53
2023-02-25T23:03:52.543Z,0.53
2023-02-25T23:06:46.944Z,0.50
2023-02-25T23:09:40.498Z,0.47
2023-02-25T23:12:27.511Z,0.46
2023-02-25T23:15:00.601Z,0.44
2023-02-25T23:17:47.537Z,0.41
2023-02-25T23:20:21.022Z,0.40
2023-02-25T23:23:11.508Z,0.40
2023-02-25T23:25:48.651Z,0.37
2023-02-25T23:28:35.512Z,0.35
2023-02-25T23:31:09.706Z,0.33
2023-02-25T23:33:56.518Z,0.31
2023-02-25T23:36:37.501Z,0.32
2023-02-25T23:39:31.720Z,0.31
2023-02-25T23:42:18.501Z,0.29
2023-02-25T23:44:51.626Z,0.23
2023-02-25T23:47:38.543Z,0.18
2023-02-25T23:50:12.637Z,0.17
2023-02-25T23:53:00.517Z,0.18
2023-02-25T23:55:33.638Z,0.21
2023-02-25T23:58:20.575Z,0.22
